Tiempo atmosférico en la estación meteorológica de El Bosque, Cádiz (295 m.)



Fecha
DESCASC
Temp. máxima en grados centígrados (hora)
DESCASC
Temp. mínima en grados centígrados (hora)
DESCASC
Temp. media en grados centígrados
DESCASC
Racha de viento máxima en m/sg (hora)
DESCASC
Velocidad máxima media en intervalos de 10 minutos(hora)
DESCASC
Precipitaciones diarias en mm
DESCASC
Precipitaciones de 00:00 a 06:00 en mm
DESCASC
Precipitaciones de 06:00 a 12:00 en mm
DESCASC
Precipitaciones de 12:00 a 18:00 en mm
DESCASC
Precipitaciones de 18:00 a 24:00 en mm
DESCASC
05-04-2020 20.4 (16:50) 13.2 (08:10) 16.8 10.83 (05:10) 6.67 (12:50) 0 0 0 0 0
04-04-2020 17.3 (11:30) 10.8 (05:40) 14 20 (13:10) 11.39 (13:50) 0 0 0 0 0
03-04-2020 20.2 (16:20) 5.5 (07:00) 12.9 10 (20:20) 5.56 (20:20) 0.2 0 0.2 0 0
02-04-2020 14.5 (17:20) 7 (00:00) 10.8 10.28 (05:20) 5.56 (05:00) 19.8 8.4 11 0 0.4
01-04-2020 16.3 (17:20) 8.7 (00:00) 12.5 8.33 (18:00) 4.72 (18:00) 0.4 0 0 0 0.4
31-03-2020 16.1 (18:10) 10.2 (00:00) 13.2 18.89 (02:10) 11.67 (02:10) 25.6 6.8 10.8 5 3
30-03-2020 17.5 (15:10) 8.4 (00:00) 12.9 8.61 (22:10) 5 (22:10) 2.2 0 0.2 0 2
29-03-2020 19.7 (15:20) 6.5 (00:00) 13.1 6.11 (14:10) 3.06 (13:30) 2.2 0 0 0 2.2
28-03-2020 18.4 (14:20) 5.2 (00:00) 11.8 10 (15:00) 6.39 (14:30) 0 0 0 0 0
27-03-2020 17.4 (16:30) 6.4 (00:00) 11.9 6.67 (15:40) 4.17 (17:50) 0 0 0 0 0
26-03-2020 19.2 (14:40) 7.9 (00:00) 13.6 8.89 (15:50) 5 (15:30) 0 0 0 0 0
25-03-2020 17 (17:20) 8.4 (00:00) 12.7 7.5 (13:20) 4.17 (13:30) 2 0 2 0 0
24-03-2020 14.9 (18:10) 8.4 (00:00) 11.6 5.83 (23:20) 3.61 (14:40) 10.8 0 5.2 0 5.6
23-03-2020 15.9 (13:30) 4.9 (00:00) 10.4 5.28 (16:40) 3.33 (16:40) 3.4 0 0 3.4 0
22-03-2020 15.1 (15:30) 6 (07:50) 10.6 6.67 (01:00) 3.61 (01:20) 2 1.6 0.2 0 0.2
21-03-2020 14.2 (11:40) 8 (00:00) 11.1 18.61 (15:40) 10.28 (15:40) 38.2 15.2 0.4 15 7.6
20-03-2020 18.7 (16:20) 10.1 (00:00) 14.4 15.56 (21:20) 8.89 (21:20) 0.6 0 0 0 0.6
19-03-2020 20.1 (15:00) 12.4 (00:00) 16.3 13.06 (00:10) 8.61 (00:10) 0 0 0 0 0
18-03-2020 20 (16:50) 13.3 (00:00) 16.7 19.72 (03:10) 11.11 (03:20) 0 0 0 0 0
17-03-2020 16 (16:00) 6.4 (00:00) 11.2 16.11 (13:00) 9.17 (13:40) 4.6 4.2 0.4 0 0
16-03-2020 15.5 (15:30) 7.9 (00:00) 11.7 11.67 (20:30) 5.56 (15:40) 0.2 0.2 0 0 0
15-03-2020 21.6 (14:50) 9.5 (00:00) 15.6 8.61 (15:10) 5.83 (15:10) 0 0 0 0 0
14-03-2020 22.9 (17:10) 7.6 (00:00) 15.2 5 (13:50) 3.33 (20:00) 0 0 0 0 0
13-03-2020 22.1 (16:50) 10 (03:50) 16.1 4.44 (15:30) 2.22 (14:40) 0 0 0 0 0
12-03-2020 26.4 (16:40) 12.9 (00:00) 19.6 5.28 (20:50) 3.33 (03:00) 0 0 0 0 0
11-03-2020 28.9 (17:10) 8.9 (00:00) 18.9 5 (00:20) 4.17 (00:20) 0 0 0 0 0
10-03-2020 26.5 (15:10) 8.6 (00:00) 17.6 8.06 (21:20) 5 (19:40) 0 0 0 0 0
09-03-2020 22.8 (15:30) 6 (00:00) 14.4 10 (16:30) 5.56 (16:50) 0 0 0 0 0

Gráficas

Temp. máximas Temp. mínimas Temp. medias Precipitaciones Rachas de viento máximas Velocidades máximas media en intervalos de 10 minutos

Datos horarios

Fecha y hora oficial Temperatura (ºC) Velocidad del viento (km/h) Dirección del viento Racha (km/h) Dirección de racha Precipitación (mm) Presión (hPa) Tendencia (hPa) Humedad (%)
2020-04-07 23:00:00 14.3 10 Este 22 Este 0 -- -- 83
2020-04-07 22:00:00 15.1 12 Este 22 Este 0 -- -- 79
2020-04-07 21:00:00 16.6 9 Sudeste 18 Sur 0 -- -- 74
2020-04-07 20:00:00 18.8 12 Sur 23 Sur 0 -- -- 68
2020-04-07 19:00:00 19.1 12 Sudoeste 21 Sudoeste 0 -- -- 66
2020-04-07 18:00:00 19.9 14 Sudoeste 27 Sur 0 -- -- 65
2020-04-07 17:00:00 20.5 18 Sur 34 Sur 0 -- -- 61
2020-04-07 16:00:00 20.8 20 Sur 31 Sur 0 -- -- 62
2020-04-07 15:00:00 20.6 19 Sur 32 Sudoeste 0 -- -- 62
2020-04-07 14:00:00 19.3 21 Sur 34 Sur 0 -- -- 65
2020-04-07 13:00:00 18.7 18 Sur 35 Sudoeste 0 -- -- 65
2020-04-07 12:00:00 17.6 19 Sur 35 Sur 0 -- -- 70
2020-04-07 11:00:00 16.1 12 Sur 23 Sudeste 0 -- -- 74
2020-04-07 10:00:00 14.3 9 Sudeste 16 Sudeste 0 -- -- 82
2020-04-07 09:00:00 12.1 6 Este 22 Este 0 -- -- 89
2020-04-07 08:00:00 11.6 8 Sudeste 18 Sudeste 0 -- -- 90
2020-04-07 07:00:00 12 9 Sudeste 20 Este 0 -- -- 89
2020-04-07 06:00:00 11.6 10 Sudeste 18 Este 0 -- -- 90
2020-04-07 05:00:00 11.8 7 Sudeste 16 Este 0 -- -- 89
2020-04-07 04:00:00 12.3 12 Sudeste 20 Sudeste 0 -- -- 89
2020-04-07 03:00:00 12 14 Sudeste 22 Este 0 -- -- 90
2020-04-07 02:00:00 12.8 12 Este 22 Este 0 -- -- 90
2020-04-07 01:00:00 12.1 10 Sudeste 15 Sudeste 0 -- -- 91
2020-04-07 00:00:00 13.3 9 Este 18 Sudeste 0 -- -- 87
2020-04-06 23:00:00 13.8 9 Este 18 Sudeste 0 -- -- 86
2020-04-06 22:00:00 14.6 6 Sudeste 20 Este 0 -- -- 83
2020-04-06 21:00:00 16.5 8 Sudeste 15 Sudeste 0 -- -- 76
2020-04-06 20:00:00 19.1 8 Sudoeste 14 Sudeste 0 -- -- 67
2020-04-06 19:00:00 19.9 10 Sudeste 25 Este 0 -- -- 65
2020-04-06 18:00:00 20.4 13 Sudeste 26 Sudeste 0 -- -- 64
2020-04-06 17:00:00 19.8 9 Sur 24 Sur 0 -- -- 66
2020-04-06 16:00:00 20.3 9 Sudeste 23 Sudeste 0 -- -- 62
2020-04-06 15:00:00 19.2 12 Sur 26 Este 0 -- -- 68
2020-04-06 14:00:00 16.5 16 Sudeste 27 Este 0 -- -- 75
2020-04-06 13:00:00 15.5 10 Sudoeste 24 Sudoeste 0 -- -- 75
2020-04-06 12:00:00 17.4 7 Sur 29 Sudeste 0 -- -- 65
2020-04-06 11:00:00 15.5 12 Este 28 Este 0 -- -- 71
2020-04-06 10:00:00 14.4 15 Este 29 Este 0 -- -- 73
2020-04-06 09:00:00 13.8 15 Este 29 Sudeste 0 -- -- 70
2020-04-06 08:00:00 14 12 Sudeste 26 Sudeste 0 -- -- 71
2020-04-06 07:00:00 14 14 Sudeste 27 Este 0 -- -- 72
2020-04-06 06:00:00 14.1 18 Sudeste 30 Este 0 -- -- 68
2020-04-06 05:00:00 13 14 Sudeste 31 Sudeste 0 -- -- 75
2020-04-06 04:00:00 12.9 20 Sudeste 30 Sudeste 0 -- -- 74
2020-04-06 03:00:00 13.5 15 Este 31 Sudeste 0 -- -- 71
2020-04-06 02:00:00 13.2 18 Sudeste 29 Sudeste 0 -- -- 76
2020-04-06 01:00:00 12.9 15 Sudeste 26 Sudeste 0 -- -- 83
2020-04-06 00:00:00 13.2 13 Sudeste 31 Este 0 -- -- 83
2020-04-05 23:00:00 13.4 16 Sudeste 29 Este 0 -- -- 83
2020-04-05 22:00:00 13.9 12 Sudeste 22 Sudoeste 0 -- -- 81
2020-04-05 21:00:00 14.5 12 Sur 26 Sur 0 -- -- 79
2020-04-05 20:00:00 16.2 10 Sudoeste 22 Sur 0 -- -- 72
2020-04-05 19:00:00 17 12 Sur 24 Sur 0 -- -- 68
2020-04-05 18:00:00 18.4 17 Sur 30 Sudoeste 0 -- -- 63
2020-04-05 17:00:00 20.3 18 Sur 31 Sur 0 -- -- 56
2020-04-05 16:00:00 19.2 20 Sur 32 Sur 0 -- -- 58
2020-04-05 15:00:00 19.8 21 Sur 37 Sur 0 -- -- 57
2020-04-05 14:00:00 19.8 21 Sur 35 Sur 0 -- -- 56
2020-04-05 13:00:00 18.7 23 Sur 37 Sur 0 -- -- 56
2020-04-05 12:00:00 18 21 Sur 35 Sudoeste 0 -- -- 56
2020-04-05 11:00:00 16.5 20 Sur 36 Sudoeste 0 -- -- 50
2020-04-05 10:00:00 14.3 15 Sur 26 Sur 0 -- -- 53
2020-04-05 09:00:00 13.4 13 Sur 23 Sudeste 0 -- -- 54
2020-04-05 08:00:00 13.5 13 Sur 31 Sur 0 -- -- 55
2020-04-05 07:00:00 14.7 14 Sudeste 31 Sur 0 -- -- 53
2020-04-05 06:00:00 14.3 8 Sur 39 Sudeste 0 -- -- 55
2020-04-05 05:00:00 13.8 13 Sur 28 Sur 0 -- -- 58
2020-04-05 04:00:00 14.1 9 Sudoeste 28 Este 0 -- -- 59
2020-04-05 03:00:00 14.6 10 Sur 38 Este 0 -- -- 55
2020-04-05 02:00:00 14.4 15 Sur 28 Sur 0 -- -- 55
2020-04-05 01:00:00 14.4 9 Sur 39 Sudeste 0 -- -- 56
2020-04-05 00:00:00 15.3 19 Sur 36 Sudeste 0 -- -- 47
2020-04-04 23:00:00 14.4 5 Sur 21 Sur 0 -- -- 55
2020-04-04 22:00:00 14.9 8 Sur 30 Sudeste 0 -- -- 55
2020-04-04 21:00:00 15 18 Sudeste 35 Este 0 -- -- 54
2020-04-04 20:00:00 15.7 19 Sudeste 39 Sudeste 0 -- -- 54
2020-04-04 19:00:00 15.8 27 Sudeste 46 Sudeste 0 -- -- 56
2020-04-04 18:00:00 15.8 26 Sudeste 53 Este 0 -- -- 58
2020-04-04 17:00:00 15.7 12 Sur 44 Sur 0 -- -- 62
2020-04-04 16:00:00 16.3 13 Sudoeste 43 Sudeste 0 -- -- 59
2020-04-04 15:00:00 15.5 23 Este 51 Este 0 -- -- 62
2020-04-04 14:00:00 14.6 39 Sudeste 72 Este 0 -- -- 65
2020-04-04 13:00:00 16.5 36 Sudeste 69 Sudeste 0 -- -- 51
2020-04-04 12:00:00 17 29 Sudeste 66 Sudeste 0 -- -- 45
2020-04-04 11:00:00 16.4 28 Sudeste 56 Sudeste 0 -- -- 42
2020-04-04 10:00:00 16 19 Sudeste 49 Sudeste 0 -- -- 43
2020-04-04 09:00:00 14.1 12 Este 41 Sudeste 0 -- -- 44
2020-04-04 08:00:00 14.3 9 Sur 39 Sur 0 -- -- 44
2020-04-04 07:00:00 14.4 15 Sudeste 48 Sudeste 0 -- -- 41
2020-04-04 06:00:00 11.6 5 Sur 19 Oeste 0 -- -- 56
2020-04-04 05:00:00 11.9 2 Norte 22 Sudeste 0 -- -- 54
2020-04-04 04:00:00 13.4 14 Sudeste 35 Sudeste 0 -- -- 47
2020-04-04 03:00:00 13.7 17 Sudeste 34 Sudeste 0 -- -- 48
2020-04-04 02:00:00 12.2 7 Sudeste 13 Este 0 -- -- 56
2020-04-04 01:00:00 13 3 Sudeste 26 Sudeste 0 -- -- 52
2020-04-04 00:00:00 12.9 12 Este 23 Este 0 -- -- 51
2020-04-03 23:00:00 12.2 4 Sudeste 25 Sudeste 0 -- -- 59
2020-04-03 22:00:00 14 14 Sudeste 30 Sudeste 0 -- -- 57
2020-04-03 21:00:00 15 18 Sudeste 36 Sudeste 0 -- -- 53
2020-04-03 20:00:00 17 17 Sudeste 30 Sudeste 0 -- -- 49
2020-04-03 19:00:00 18.7 16 Sur 27 Sur 0 -- -- 49
2020-04-03 18:00:00 19.1 11 Sur 24 Sur 0 -- -- 54
2020-04-03 17:00:00 17.7 14 Sur 28 Sur 0 -- -- 61
2020-04-03 16:00:00 19.3 5 Noroeste 17 Oeste 0 -- -- 51
2020-04-03 15:00:00 18.1 11 Sur 19 Sudoeste 0 -- -- 59
2020-04-03 14:00:00 19.1 4 Noroeste 14 Sudoeste 0 -- -- 58
2020-04-03 13:00:00 17.5 4 Noroeste 12 Noroeste 0 -- -- 65
2020-04-03 12:00:00 15.5 4 Noroeste 9 Noroeste 0 -- -- 69
2020-04-03 11:00:00 12.5 2 Noroeste 4 Oeste 0 -- -- 83
2020-04-03 10:00:00 9.3 0 Calma 10 Este 0 -- -- 91
2020-04-03 09:00:00 6.1 3 Sudeste 9 Este 0.2 -- -- 95
2020-04-03 08:00:00 5.6 2 Sudeste 11 Este 0 -- -- 93
2020-04-03 07:00:00 5.5 0 Calma 10 Este 0 -- -- 95
2020-04-03 06:00:00 6.2 2 Este 8 Este 0 -- -- 94
2020-04-03 05:00:00 6.4 3 Sudeste 10 Oeste 0 -- -- 94
2020-04-03 04:00:00 7.4 3 Nordeste 18 Sur 0 -- -- 94
2020-04-03 03:00:00 8.6 6 Este 10 Este 0 -- -- 92
2020-04-03 02:00:00 8.5 2 Noroeste 19 Este 0 -- -- 91
2020-04-03 01:00:00 8.7 8 Este 13 Sudeste 0 -- -- 94
2020-04-03 00:00:00 8.7 0 Calma 8 Sudeste 0 -- -- 92
2020-04-02 23:00:00 9.6 2 Nordeste 8 Este 0 -- -- 90
2020-04-02 22:00:00 10.4 0 Calma 5 Este 0 -- -- 87
2020-04-02 21:00:00 11.1 2 Nordeste 6 Noroeste 0 -- -- 83
2020-04-02 20:00:00 11.6 2 Oeste 20 Oeste 0 -- -- 84
2020-04-02 19:00:00 11.7 10 Noroeste 32 Oeste 0.4 -- -- 84
2020-04-02 18:00:00 13.6 9 Noroeste 24 Oeste 0 -- -- 63
2020-04-02 17:00:00 14 10 Noroeste 27 Oeste 0 -- -- 64
2020-04-02 16:00:00 13.5 14 Oeste 30 Oeste 0 -- -- 65
2020-04-02 15:00:00 13.6 12 Noroeste 26 Noroeste 0 -- -- 60
2020-04-02 14:00:00 12.1 12 Oeste 23 Oeste 0 -- -- 66
2020-04-02 13:00:00 10.6 7 Oeste 16 Sudeste 0 -- -- 76
2020-04-02 12:00:00 9.5 7 Sudeste 18 Este 0.2 -- -- 80
2020-04-02 11:00:00 7.9 4 Este 8 Este 4.6 -- -- 94
2020-04-02 10:00:00 7.8 4 Sudeste 9 Sudeste 2.6 -- -- 94
2020-04-02 09:00:00 7.6 3 Este 13 Este 0 -- -- 91
2020-04-02 08:00:00 7.6 5 Nordeste 22 Este 0 -- -- 87
2020-04-02 07:00:00 8.4 12 Este 22 Este 3.6 -- -- 90
2020-04-02 06:00:00 9.2 6 Noroeste 37 Sudeste 3.4 -- -- 92
2020-04-02 05:00:00 9.8 20 Sudeste 36 Sudeste 0.8 -- -- 86
2020-04-02 04:00:00 9.6 10 Sudeste 17 Este 1.4 -- -- 91
2020-04-02 03:00:00 9.6 10 Sudeste 19 Sudeste 0.8 -- -- 90
2020-04-02 02:00:00 10.4 8 Sudoeste 26 Sur 2 -- -- 86
2020-04-02 01:00:00 10.7 20 Sur 30 Sur 0 -- -- 82
2020-04-02 00:00:00 10.7 9 Sudeste 20 Sudeste 0 -- -- 82
2020-04-01 23:00:00 10.5 10 Sudeste 17 Sudeste 0 -- -- 83
2020-04-01 22:00:00 10.3 9 Sudeste 19 Sudeste 0 -- -- 85
2020-04-01 21:00:00 10.6 12 Sudeste 24 Sudeste 0 -- -- 86
2020-04-01 20:00:00 11.8 3 Sudeste 28 Oeste 0.4 -- -- 82
2020-04-01 19:00:00 14.2 12 Oeste 27 Sudoeste 0 -- -- 65
2020-04-01 18:00:00 15 17 Sudoeste 30 Oeste 0 -- -- 56
2020-04-01 17:00:00 15.2 12 Oeste 27 Oeste 0 -- -- 57
2020-04-01 16:00:00 15.4 13 Sudoeste 27 Oeste 0 -- -- 61
2020-04-01 15:00:00 15 11 Oeste 21 Oeste 0 -- -- 62
2020-04-01 14:00:00 14.8 10 Sur 20 Sudoeste 0 -- -- 61
2020-04-01 13:00:00 14.3 7 Oeste 17 Este 0 -- -- 64
2020-04-01 12:00:00 12.1 10 Noroeste 23 Noroeste 0 -- -- 69
2020-04-01 11:00:00 11.9 6 Oeste 12 Noroeste 0 -- -- 76
2020-04-01 10:00:00 10.8 3 Norte 10 Norte 0 -- -- 85
2020-04-01 09:00:00 9.3 8 Norte 13 Noroeste 0 -- -- 91
2020-04-01 08:00:00 8.8 0 Calma 5 Nordeste 0 -- -- 95
2020-04-01 07:00:00 9.2 3 Nordeste 9 Este 0 -- -- 94
2020-04-01 06:00:00 8.9 6 Este 13 Sudeste 0 -- -- 94
2020-04-01 05:00:00 9.1 7 Este 10 Sudeste 0 -- -- 92
2020-04-01 04:00:00 10.2 4 Este 10 Oeste 0 -- -- 91
2020-04-01 03:00:00 11.4 8 Oeste 13 Oeste 0 -- -- 90
2020-04-01 02:00:00 11.7 0 Calma 5 Oeste 0 -- -- 92
2020-04-01 01:00:00 11.8 0 Calma 14 Sur 0 -- -- 91
2020-04-01 00:00:00 12.2 8 Sudeste 17 Sudeste 0 -- -- 87
2020-03-31 23:00:00 12.2 8 Sudeste 18 Sudeste 0.4 -- -- 88
2020-03-31 22:00:00 12.3 10 Sudeste 22 Sudeste 0 -- -- 87
2020-03-31 21:00:00 12.4 6 Sudeste 17 Sudeste 0 -- -- 86
2020-03-31 20:00:00 12.3 9 Sudeste 23 Sudeste 0.4 -- -- 87
2020-03-31 19:00:00 13.2 16 Sudeste 27 Sudeste 2.2 -- -- 86
2020-03-31 18:00:00 15.7 16 Sur 29 Sur 0.2 -- -- 76
2020-03-31 17:00:00 14.3 9 Sudeste 33 Sudeste 0.2 -- -- 85
2020-03-31 16:00:00 15.3 15 Sudoeste 28 Sudoeste 0.4 -- -- 79
2020-03-31 15:00:00 15 6 Oeste 22 Sur 2.2 -- -- 85
2020-03-31 14:00:00 14 5 Noroeste 23 Sudoeste 0.8 -- -- 85
2020-03-31 13:00:00 14.4 10 Sur 24 Sur 1.2 -- -- 83
2020-03-31 12:00:00 14.3 14 Sur 32 Sudeste 0 -- -- 83
2020-03-31 11:00:00 14.5 12 Sur 21 Sur 0 -- -- 80
2020-03-31 10:00:00 11.2 12 Sudeste 22 Sudeste 1.4 -- -- 95
2020-03-31 09:00:00 10.2 8 Sudeste 12 Sudeste 4.4 -- -- 94
2020-03-31 08:00:00 10.4 4 Este 47 Sudeste 4.8 -- -- 92
2020-03-31 07:00:00 12.1 26 Sudeste 44 Sur 0.2 -- -- 82
2020-03-31 06:00:00 12.4 20 Sudeste 42 Sudeste 0 -- -- 80
2020-03-31 05:00:00 12.4 28 Sudeste 50 Sudeste 0 -- -- 79
2020-03-31 04:00:00 12.8 32 Sudeste 60 Sudeste 0.8 -- -- 75
2020-03-31 03:00:00 11.4 13 Sur 68 Este 5.6 -- -- 88
2020-03-31 02:00:00 12.4 38 Sudeste 66 Sudeste 0.4 -- -- 81
2020-03-31 01:00:00 12.6 30 Sudeste 55 Este 0 -- -- 79
2020-03-31 00:00:00 11.2 3 Sudeste 22 Este 1 -- -- 89
2020-03-30 23:00:00 12 4 Sudeste 31 Sudeste 0.6 -- -- 81
2020-03-30 22:00:00 12.6 7 Sudeste 16 Sudeste 0 -- -- 83
2020-03-30 21:00:00 12.8 3 Este 5 Sur 0.4 -- -- 86
2020-03-30 20:00:00 14.6 2 Sudoeste 13 Sudeste 0 -- -- 73
2020-03-30 19:00:00 14.7 8 Sur 21 Sur 0 -- -- 71
2020-03-30 18:00:00 14.9 9 Sudoeste 22 Sudoeste 0 -- -- 70
2020-03-30 17:00:00 15.8 15 Sudoeste 22 Sudoeste 0 -- -- 65
2020-03-30 16:00:00 16.4 13 Sudoeste 21 Sudoeste 0 -- -- 62
2020-03-30 15:00:00 17 5 Oeste 15 Oeste 0 -- -- 63
2020-03-30 14:00:00 16.3 4 Noroeste 15 Sudoeste 0 -- -- 64
2020-03-30 13:00:00 16 7 Sudoeste 14 Sudoeste 0 -- -- 64
2020-03-30 12:00:00 14.1 5 Sur 14 Sudoeste 0 -- -- 73
2020-03-30 11:00:00 12.9 0 Calma 9 Sudeste 0 -- -- 87
2020-03-30 10:00:00 10 2 Este 5 Sudeste 0 -- -- 95
2020-03-30 09:00:00 8.9 0 Calma 12 Sudeste 0 -- -- 95
2020-03-30 08:00:00 8.5 2 Norte 15 Este 0.2 -- -- 95
2020-03-30 07:00:00 9.5 10 Este 17 Este 0 -- -- 96
2020-03-30 06:00:00 9.3 4 Este 8 Este 0 -- -- 95
2020-03-30 05:00:00 10.6 2 Este 5 Sudeste 0 -- -- 95
2020-03-30 04:00:00 11.1 0 Calma 10 Sudeste 0 -- -- 95
2020-03-30 03:00:00 11.5 5 Sudeste 8 Sudeste 0 -- -- 94
2020-03-30 02:00:00 11.6 2 Sudeste 4 Este 0 -- -- 95
2020-03-30 01:00:00 11.6 0 Calma 7 Sudeste 0 -- -- 94
2020-03-30 00:00:00 11.8 2 Este 8 Este 0 -- -- 94
2020-03-29 23:00:00 12.1 4 Este 9 Este 0 -- -- 92
2020-03-29 22:00:00 12.8 2 Nordeste 13 Este 0 -- -- 90
2020-03-29 21:00:00 13.1 8 Este 11 Este 0 -- -- 90
2020-03-29 20:00:00 13.9 6 Este 11 Nordeste 2.2 -- -- 83
2020-03-29 19:00:00 15.8 5 Sudoeste 16 Oeste 0 -- -- 74
2020-03-29 18:00:00 17 5 Oeste 13 Sudoeste 0 -- -- 61
2020-03-29 17:00:00 18.1 6 Oeste 12 Oeste 0 -- -- 56
2020-03-29 16:00:00 19.4 8 Sur 19 Sudoeste 0 -- -- 50
2020-03-29 15:00:00 19.1 9 Sur 22 Sudoeste 0 -- -- 52
2020-03-29 14:00:00 18.3 8 Sudoeste 19 Sur 0 -- -- 51
2020-03-29 13:00:00 17.4 5 Noroeste 10 Noroeste 0 -- -- 53
2020-03-29 12:00:00 15.4 4 Oeste 9 Noroeste 0 -- -- 63
2020-03-29 11:00:00 12.7 3 Noroeste 5 Noroeste 0 -- -- 75
2020-03-29 10:00:00 10.1 0 Calma 8 Sudeste 0 -- -- 86
2020-03-29 09:00:00 7 5 Sur 10 Este 0 -- -- 91
2020-03-29 08:00:00 6.8 3 Este 12 Este 0 -- -- 94
2020-03-29 07:00:00 6.9 7 Este 10 Este 0 -- -- 93
2020-03-29 06:00:00 7 3 Este 13 Este 0 -- -- 90
2020-03-29 05:00:00 7.6 3 Este 11 Este 0 -- -- 90
2020-03-29 03:00:00 8.5 6 Este 11 Este 0 -- -- 90
2020-03-29 01:00:00 8.8 3 Nordeste 10 Sudeste 0 -- -- 90
2020-03-29 00:00:00 9.6 4 Sudeste 12 Sudeste 0 -- -- 87
2020-03-28 23:00:00 11.5 5 Este 14 Este 0 -- -- 80
2020-03-28 22:00:00 12.8 6 Sudeste 14 Este 0 -- -- 76
2020-03-28 21:00:00 12.9 6 Sur 13 Sur 0 -- -- 75
2020-03-28 20:00:00 13.6 7 Sur 25 Sur 0 -- -- 72
2020-03-28 19:00:00 14.6 16 Sur 26 Sur 0 -- -- 68
2020-03-28 18:00:00 15.7 17 Sur 30 Sur 0 -- -- 66
2020-03-28 17:00:00 17.1 15 Sudeste 29 Sur 0 -- -- 61
2020-03-28 16:00:00 15.8 17 Sur 35 Sur 0 -- -- 65
2020-03-28 15:00:00 18.1 22 Sur 36 Sur 0 -- -- 59
2020-03-28 14:00:00 17.9 18 Sur 31 Sur 0 -- -- 53
2020-03-28 13:00:00 17.5 19 Sur 32 Sur 0 -- -- 53
2020-03-28 12:00:00 16.6 18 Sur 30 Sur 0 -- -- 57
2020-03-28 11:00:00 15.3 12 Sur 23 Sur 0 -- -- 67
2020-03-28 10:00:00 12.2 5 Sudoeste 11 Sur 0 -- -- 83
2020-03-28 09:00:00 9.4 5 Sur 13 Sudeste 0 -- -- 90
2020-03-28 08:00:00 5.6 0 Calma 5 Este 0 -- -- 96
2020-03-28 07:00:00 5.3 0 Calma 5 Sudeste 0 -- -- 95
2020-03-28 06:00:00 6 3 Nordeste 6 Nordeste 0 -- -- 96
2020-03-28 05:00:00 6.1 0 Calma 10 Sudeste 0 -- -- 94
2020-03-28 04:00:00 6.4 5 Este 11 Este 0 -- -- 94
2020-03-28 03:00:00 6.9 0 Calma 5 Este 0 -- -- 95
2020-03-28 02:00:00 7 6 Este 10 Este 0 -- -- 94
2020-03-28 01:00:00 7.2 0 Calma 8 Este 0 -- -- 93
2020-03-28 00:00:00 7.8 2 Este 7 Norte 0 -- -- 92
2020-03-27 23:00:00 8.3 5 Sudeste 13 Este 0 -- -- 90
2020-03-27 22:00:00 9.6 6 Este 10 Este 0 -- -- 86
2020-03-27 21:00:00 11.3 3 Noroeste 10 Oeste 0 -- -- 81
2020-03-27 20:00:00 12.8 4 Noroeste 15 Oeste 0 -- -- 77
2020-03-27 19:00:00 14.8 9 Oeste 22 Oeste 0 -- -- 68
2020-03-27 18:00:00 16.7 11 Oeste 24 Sudoeste 0 -- -- 55
2020-03-27 17:00:00 16.8 10 Sudoeste 22 Oeste 0 -- -- 56
2020-03-27 16:00:00 16.6 12 Oeste 24 Sudoeste 0 -- -- 55
2020-03-27 15:00:00 16.2 7 Sudoeste 22 Sur 0 -- -- 60
2020-03-27 14:00:00 14.7 9 Sudoeste 22 Sur 0 -- -- 68
2020-03-27 13:00:00 13.2 7 Sur 12 Sudoeste 0 -- -- 76
2020-03-27 12:00:00 12.6 5 Sudoeste 15 Oeste 0 -- -- 77
2020-03-27 11:00:00 12.7 6 Sudoeste 19 Sur 0 -- -- 74
2020-03-27 10:00:00 11.2 8 Sudeste 13 Sur 0 -- -- 84
2020-03-27 09:00:00 8.5 0 Calma 4 Este 0 -- -- 97
2020-03-27 08:00:00 6.6 2 Nordeste 14 Sudeste 0 -- -- 96
2020-03-27 07:00:00 6.4 8 Sudeste 14 Sudeste 0 -- -- 94
2020-03-27 06:00:00 7.6 7 Sudeste 13 Sudeste 0 -- -- 95
2020-03-27 05:00:00 7.4 4 Sudeste 8 Este 0 -- -- 94
2020-03-27 04:00:00 8.3 4 Sudeste 8 Este 0 -- -- 94
2020-03-27 03:00:00 9 3 Este 9 Este 0 -- -- 93
2020-03-27 02:00:00 9.7 3 Nordeste 7 Este 0 -- -- 92
2020-03-27 01:00:00 10 2 Norte 6 Noroeste 0 -- -- 92
2020-03-27 00:00:00 11.4 4 Este 8 Este 0 -- -- 87
2020-03-26 23:00:00 11.9 2 Nordeste 12 Este 0 -- -- 84
2020-03-26 22:00:00 11.8 8 Este 17 Sudeste 0 -- -- 81
2020-03-26 21:00:00 12.4 4 Este 7 Norte 0 -- -- 78
2020-03-26 20:00:00 13.8 3 Norte 15 Oeste 0 -- -- 75
2020-03-26 19:00:00 16.7 7 Oeste 20 Oeste 0 -- -- 68
2020-03-26 18:00:00 17.8 9 Oeste 32 Oeste 0 -- -- 63
2020-03-26 17:00:00 18.2 14 Oeste 30 Oeste 0 -- -- 62
2020-03-26 16:00:00 18.6 14 Oeste 32 Oeste 0 -- -- 60
2020-03-26 15:00:00 19 13 Oeste 27 Sudoeste 0 -- -- 57
2020-03-26 14:00:00 18.6 12 Oeste 26 Sudoeste 0 -- -- 62
2020-03-26 13:00:00 16.7 9 Sudoeste 17 Sudoeste 0 -- -- 70
2020-03-26 12:00:00 15.8 8 Oeste 18 Oeste 0 -- -- 73
2020-03-26 11:00:00 14.2 3 Este 9 Sudeste 0 -- -- 81
2020-03-26 10:00:00 12.6 2 Sudeste 6 Sudeste 0 -- -- 87
2020-03-26 09:00:00 11 4 Sudeste 9 Este 0 -- -- 92
2020-03-26 08:00:00 10.2 6 Este 8 Este 0 -- -- 92
2020-03-26 07:00:00 9.7 0 Calma 8 Este 0 -- -- 94
2020-03-26 06:00:00 9.7 3 Este 6 Este 0 -- -- 94
2020-03-26 05:00:00 9.8 0 Calma 5 Sudeste 0 -- -- 94
2020-03-26 04:00:00 9.2 0 Calma 6 Este 0 -- -- 95
2020-03-26 03:00:00 8.7 3 Noroeste 6 Noroeste 0 -- -- 94
2020-03-26 02:00:00 8.3 2 Nordeste 13 Sudeste 0 -- -- 94
2020-03-26 01:00:00 8 0 Calma 9 Sudeste 0 -- -- 92
2020-03-26 00:00:00 8.4 7 Sudeste 18 Este 0 -- -- 89
2020-03-25 23:00:00 10 8 Este 19 Este 0 -- -- 83
2020-03-25 22:00:00 10.5 10 Este 20 Este 0 -- -- 81
2020-03-25 21:00:00 11.2 10 Este 18 Este 0 -- -- 79
2020-03-25 20:00:00 12.4 7 Sur 17 Sur 0 -- -- 77
2020-03-25 19:00:00 14.6 11 Sur 18 Sur 0 -- -- 69
2020-03-25 18:00:00 16.1 12 Sudoeste 19 Sudoeste 0 -- -- 66
2020-03-25 17:00:00 16.7 8 Sur 19 Sur 0 -- -- 64
2020-03-25 16:00:00 16.2 9 Sudoeste 19 Sudoeste 0 -- -- 64
2020-03-25 15:00:00 15.3 8 Sudoeste 20 Sur 0 -- -- 66
2020-03-25 14:00:00 14.9 12 Sur 27 Sur 0 -- -- 66
2020-03-25 13:00:00 13.7 13 Sur 24 Sur 0 -- -- 70
2020-03-25 12:00:00 12.7 8 Sudeste 24 Sudeste 0 -- -- 72
2020-03-25 11:00:00 11.5 10 Sur 21 Sudeste 0 -- -- 79
2020-03-25 10:00:00 11.4 6 Sur 25 Sudeste 0.2 -- -- 85
2020-03-25 09:00:00 10.8 9 Sur 16 Sur 1.4 -- -- 92
2020-03-25 08:00:00 11.2 5 Sur 12 Sudeste 0.2 -- -- 94
2020-03-25 07:00:00 11.6 4 Sur 11 Sur 0.2 -- -- 91
2020-03-25 06:00:00 11.8 7 Sudeste 13 Este 0 -- -- 90
2020-03-25 05:00:00 11.8 5 Sudeste 12 Sur 0 -- -- 91
2020-03-25 04:00:00 12.3 7 Sudeste 18 Este 0 -- -- 86
2020-03-25 03:00:00 11.9 8 Sudeste 17 Este 0 -- -- 90
2020-03-25 02:00:00 12.1 8 Sudeste 17 Este 0 -- -- 90
2020-03-25 01:00:00 12 8 Sudeste 18 Este 0 -- -- 90
2020-03-25 00:00:00 11.9 8 Este 21 Sudeste 0 -- -- 89
2020-03-24 23:00:00 12 10 Este 20 Este 0 -- -- 89
2020-03-24 22:00:00 12.5 10 Este 16 Este 0 -- -- 92
2020-03-24 21:00:00 12.7 10 Sudeste 15 Sudeste 3.4 -- -- 94
2020-03-24 20:00:00 13.3 3 Sudeste 6 Noroeste 2 -- -- 94
2020-03-24 19:00:00 13.8 2 Noroeste 6 Noroeste 0.2 -- -- 90
2020-03-24 18:00:00 14.8 3 Sudoeste 6 Sudoeste 0 -- -- 85
2020-03-24 17:00:00 14.2 3 Sur 5 Sur 0 -- -- 86
2020-03-24 16:00:00 14 2 Oeste 12 Sudoeste 0 -- -- 86
2020-03-24 15:00:00 13.5 9 Sudoeste 20 Sur 0 -- -- 91
2020-03-24 14:00:00 13.5 9 Sur 13 Sudoeste 0 -- -- 91
2020-03-24 13:00:00 12.9 3 Oeste 9 Noroeste 0 -- -- 91
2020-03-24 12:00:00 11.7 4 Oeste 10 Noroeste 0 -- -- 94
2020-03-24 11:00:00 11 5 Oeste 11 Noroeste 0.6 -- -- 93
2020-03-24 10:00:00 10.4 6 Sudeste 9 Sudeste 0.6 -- -- 96
2020-03-24 09:00:00 9.3 3 Noroeste 9 Norte 2.2 -- -- 95
2020-03-24 08:00:00 9 2 Sudeste 8 Sudeste 1.8 -- -- 95
2020-03-24 07:00:00 8.7 0 Calma 4 Sur 0 -- -- 94
2020-03-24 06:00:00 8.7 3 Nordeste 10 Sudeste 0 -- -- 93
2020-03-24 05:00:00 8.6 6 Este 11 Este 0 -- -- 93
2020-03-24 04:00:00 8.7 0 Calma 9 Sur 0 -- -- 93
2020-03-24 03:00:00 9.6 0 Calma 10 Norte 0 -- -- 88
2020-03-24 02:00:00 9.9 2 Sur 9 Nordeste 0 -- -- 88
2020-03-24 01:00:00 9.6 4 Nordeste 12 Norte 0 -- -- 87
2020-03-24 00:00:00 9.9 0 Calma 13 Norte 0 -- -- 92
2020-03-23 23:00:00 10.4 4 Norte 10 Nordeste 0 -- -- 90
2020-03-23 22:00:00 11.1 3 Noroeste 8 Norte 0 -- -- 89
2020-03-23 21:00:00 11.5 2 Este 5 Este 0 -- -- 90
2020-03-23 20:00:00 12.2 3 Este 5 Nordeste 0 -- -- 86
2020-03-23 19:00:00 13.4 0 Calma 14 Este 0 -- -- 79
2020-03-23 18:00:00 13.4 10 Este 19 Este 0.2 -- -- 78
2020-03-23 17:00:00 11.4 5 Nordeste 19 Este 2.2 -- -- 90
2020-03-23 16:00:00 11.3 4 Sudeste 10 Este 0.8 -- -- 88
2020-03-23 15:00:00 12.3 5 Nordeste 19 Sur 0 -- -- 78
2020-03-23 14:00:00 15.4 7 Sudoeste 18 Sur 0.2 -- -- 63
2020-03-23 13:00:00 15.2 3 Noroeste 8 Norte 0 -- -- 56
2020-03-23 12:00:00 14.3 5 Norte 10 Norte 0 -- -- 63
2020-03-23 11:00:00 13.1 6 Norte 9 Norte 0 -- -- 70
2020-03-23 10:00:00 10.4 4 Noroeste 6 Noroeste 0 -- -- 87
2020-03-23 09:00:00 8 3 Sur 10 Sudeste 0 -- -- 94
2020-03-23 08:00:00 5 3 Sudeste 9 Nordeste 0 -- -- 95
2020-03-23 07:00:00 4.9 0 Calma 4 Norte 0 -- -- 95
2020-03-23 06:00:00 5.3 0 Calma 8 Sudeste 0 -- -- 95
2020-03-23 05:00:00 5.4 0 Calma 6 Este 0 -- -- 95
2020-03-23 04:00:00 5.7 3 Sudeste 5 Sudeste 0 -- -- 95
2020-03-23 03:00:00 6 4 Este 12 Este 0 -- -- 94
2020-03-23 02:00:00 6.3 3 Nordeste 9 Este 0 -- -- 94
2020-03-23 01:00:00 6.8 3 Este 13 Sudeste 0 -- -- 94
2020-03-23 00:00:00 7.1 5 Este 9 Este 0 -- -- 93
2020-03-22 23:00:00 7.9 6 Este 8 Este 0 -- -- 91
2020-03-22 22:00:00 8.8 6 Sudeste 9 Sudeste 0 -- -- 90
2020-03-22 21:00:00 10.2 4 Este 7 Norte 0 -- -- 86
2020-03-22 20:00:00 11.3 0 Calma 6 Norte 0 -- -- 88
2020-03-22 19:00:00 12.1 4 Noroeste 15 Norte 0.2 -- -- 85
2020-03-22 18:00:00 13.6 7 Noroeste 19 Oeste 0 -- -- 71
2020-03-22 17:00:00 14.2 7 Noroeste 17 Oeste 0 -- -- 67
2020-03-22 16:00:00 15.1 8 Noroeste 18 Noroeste 0 -- -- 63
2020-03-22 15:00:00 13.7 7 Noroeste 17 Noroeste 0 -- -- 65
2020-03-22 14:00:00 13.8 6 Noroeste 12 Oeste 0 -- -- 68
2020-03-22 13:00:00 14.4 7 Oeste 15 Sudoeste 0 -- -- 65
2020-03-22 12:00:00 14 3 Sudoeste 9 Sur 0 -- -- 65
2020-03-22 11:00:00 12.8 3 Oeste 6 Sur 0 -- -- 77
2020-03-22 10:00:00 10.8 5 Sudoeste 9 Sur 0 -- -- 88
2020-03-22 09:00:00 8.5 5 Sudeste 9 Sudeste 0 -- -- 95
2020-03-22 08:00:00 6.2 4 Nordeste 8 Este 0 -- -- 95
2020-03-22 07:00:00 6.6 3 Este 10 Sudeste 0.2 -- -- 94
2020-03-22 06:00:00 7.5 3 Nordeste 11 Este 0 -- -- 93
2020-03-22 05:00:00 8.4 6 Sudeste 15 Este 0 -- -- 91
2020-03-22 04:00:00 8.3 10 Sudeste 17 Este 0.2 -- -- 92
2020-03-22 03:00:00 8.3 10 Sudeste 17 Sudeste 0.8 -- -- 92
2020-03-22 02:00:00 8.6 9 Sudeste 22 Este 0.4 -- -- 89
2020-03-22 01:00:00 8.9 12 Este 24 Este 0.2 -- -- 87
2020-03-22 00:00:00 9.2 10 Sudeste 22 Sudeste 0.4 -- -- 86
2020-03-21 23:00:00 9.8 12 Sur 25 Sur 0 -- -- 87
2020-03-21 22:00:00 9.4 9 Sudeste 16 Sudeste 0 -- -- 90
2020-03-21 21:00:00 8.8 3 Este 9 Sudeste 0 -- -- 93
2020-03-21 20:00:00 8.9 4 Este 13 Sudeste 0.2 -- -- 93
2020-03-21 19:00:00 8 10 Sudeste 29 Sudoeste 7 -- -- 92
2020-03-21 18:00:00 10 9 Noroeste 32 Sur 5.6 -- -- 87
2020-03-21 17:00:00 11.4 16 Sudeste 45 Sudeste 0.2 -- -- 79
2020-03-21 16:00:00 10.6 22 Sudeste 67 Sudeste 1.6 -- -- 86
2020-03-21 15:00:00 10.1 19 Sudeste 31 Sudeste 3.4 -- -- 86
2020-03-21 14:00:00 10.3 7 Sur 24 Sur 2.8 -- -- 86
2020-03-21 13:00:00 11.5 7 Sur 36 Sudoeste 1.4 -- -- 80
2020-03-21 12:00:00 13.7 10 Sur 25 Sur 0 -- -- 65
2020-03-21 11:00:00 12.9 13 Sudeste 22 Sudeste 0.2 -- -- 76
2020-03-21 10:00:00 11.6 11 Sudeste 21 Sudeste 0 -- -- 81
2020-03-21 09:00:00 9.5 11 Este 17 Este 0 -- -- 92
2020-03-21 08:00:00 8.8 8 Sudeste 13 Sudeste 0.2 -- -- 93
2020-03-21 07:00:00 8.4 6 Sudeste 13 Este 0 -- -- 93
2020-03-21 06:00:00 8.6 8 Sudeste 12 Sudeste 0 -- -- 94
2020-03-21 05:00:00 9.4 3 Este 9 Este 0 -- -- 93
2020-03-21 04:00:00 9.7 6 Este 9 Este 0 -- -- 92
2020-03-21 03:00:00 10.2 4 Sur 6 Sudeste 0.4 -- -- 94
2020-03-21 02:00:00 10.3 3 Sudoeste 18 Sudoeste 5.6 -- -- 92
2020-03-21 01:00:00 11.1 12 Sudoeste 45 Sur 9.2 -- -- 91
2020-03-21 00:00:00 13.1 13 Sur 41 Sur 0.6 -- -- 89
2020-03-20 23:00:00 14.3 17 Sur 50 Sudeste 0 -- -- 77
2020-03-20 22:00:00 14.6 24 Sur 56 Sudeste 0 -- -- 73
2020-03-20 21:00:00 15 27 Sudeste 44 Sudeste 0 -- -- 65
2020-03-20 20:00:00 15.1 22 Sudeste 44 Sudeste 0 -- -- 64
2020-03-20 19:00:00 15.7 22 Sudeste 37 Sudeste 0 -- -- 61
2020-03-20 18:00:00 16.6 19 Sudeste 33 Sudeste 0 -- -- 60
2020-03-20 17:00:00 16.5 22 Sur 35 Sur 0 -- -- 61
2020-03-20 16:00:00 18.3 16 Sur 38 Sur 0 -- -- 58
2020-03-20 15:00:00 18.3 8 Sudeste 36 Sur 0 -- -- 56
2020-03-20 14:00:00 16.5 19 Sur 30 Sur 0 -- -- 62
2020-03-20 13:00:00 17 12 Sudeste 25 Este 0 -- -- 61
2020-03-20 12:00:00 15.1 6 Norte 14 Norte 0 -- -- 72
2020-03-20 11:00:00 13.6 0 Calma 10 Norte 0 -- -- 80
2020-03-20 10:00:00 13.3 5 Norte 9 Nordeste 0 -- -- 73
2020-03-20 09:00:00 11.5 4 Sudeste 8 Sudeste 0 -- -- 80
2020-03-20 08:00:00 11.7 2 Norte 12 Sudeste 0 -- -- 76
2020-03-20 07:00:00 11.6 7 Sudeste 13 Este 0 -- -- 74
2020-03-20 06:00:00 10.5 6 Sudeste 14 Sudeste 0 -- -- 78
2020-03-20 05:00:00 10.7 4 Norte 12 Este 0 -- -- 79
2020-03-20 04:00:00 11.1 6 Sudeste 12 Este 0 -- -- 78
2020-03-20 03:00:00 11.8 4 Este 15 Este 0 -- -- 76
2020-03-20 02:00:00 13.2 5 Este 23 Sudeste 0 -- -- 73
2020-03-20 01:00:00 13 9 Sudeste 19 Sudeste 0 -- -- 75
2020-03-20 00:00:00 12.5 2 Sur 5 Sur 0 -- -- 77
2020-03-19 23:00:00 12.7 3 Noroeste 8 Norte 0 -- -- 75
2020-03-19 22:00:00 12.9 3 Norte 9 Sudeste 0 -- -- 74
2020-03-19 21:00:00 13.6 2 Sur 9 Sur 0 -- -- 71
2020-03-19 20:00:00 14.8 4 Sudeste 10 Sur 0 -- -- 69
2020-03-19 19:00:00 16.3 2 Sur 15 Sudoeste 0 -- -- 64
2020-03-19 18:00:00 16.9 12 Sur 22 Sur 0 -- -- 59
2020-03-19 17:00:00 17.4 12 Sudeste 24 Sudeste 0 -- -- 58
2020-03-19 16:00:00 17.7 17 Sudeste 35 Sudeste 0 -- -- 56
2020-03-19 15:00:00 20.1 10 Sudeste 30 Sur 0 -- -- 51
2020-03-19 14:00:00 19.3 15 Sur 29 Sur 0 -- -- 54
2020-03-19 13:00:00 19.1 12 Sur 22 Sudoeste 0 -- -- 53
2020-03-19 12:00:00 17.9 8 Norte 17 Norte 0 -- -- 58
2020-03-19 11:00:00 17.3 6 Norte 19 Sur 0 -- -- 61
2020-03-19 10:00:00 15.8 12 Sur 21 Sur 0 -- -- 61
2020-03-19 09:00:00 14.4 3 Sur 15 Este 0 -- -- 67
2020-03-19 08:00:00 13.7 6 Sur 14 Este 0 -- -- 70
2020-03-19 07:00:00 14.7 6 Este 32 Sudeste 0 -- -- 65
2020-03-19 06:00:00 14.4 14 Sudeste 22 Sudeste 0 -- -- 68
2020-03-19 05:00:00 13.1 4 Sudeste 7 Este 0 -- -- 71
2020-03-19 04:00:00 13 3 Norte 7 Sudoeste 0 -- -- 71
2020-03-19 03:00:00 14 3 Noroeste 15 Sur 0 -- -- 67
2020-03-19 02:00:00 15.7 13 Sudeste 38 Sudeste 0 -- -- 58
2020-03-19 01:00:00 16.6 21 Sudeste 47 Sudeste 0 -- -- 54
2020-03-19 00:00:00 15.9 28 Sudeste 48 Sudeste 0 -- -- 57
2020-03-18 23:00:00 16.5 28 Sudeste 45 Sudeste 0 -- -- 54
2020-03-18 22:00:00 16.7 13 Sudeste 28 Sudeste 0 -- -- 53
2020-03-18 21:00:00 16.2 9 Sudoeste 28 Este 0 -- -- 57
2020-03-18 20:00:00 16.8 10 Sudoeste 43 Sudeste 0 -- -- 56
2020-03-18 19:00:00 18.4 24 Sudeste 59 Sudeste 0 -- -- 51
2020-03-18 18:00:00 19.1 29 Sudeste 49 Sudeste 0 -- -- 49
2020-03-18 17:00:00 19.9 27 Sudeste 65 Sudeste 0 -- -- 48
2020-03-18 16:00:00 19.5 34 Sudeste 60 Sudeste 0 -- -- 52
2020-03-18 15:00:00 19.2 33 Sudeste 64 Este 0 -- -- 53
2020-03-18 14:00:00 18.8 36 Sudeste 63 Sudeste 0 -- -- 54
2020-03-18 13:00:00 19.3 24 Sudeste 55 Este 0 -- -- 52
2020-03-18 12:00:00 17.8 28 Sudeste 58 Sudeste 0 -- -- 57
2020-03-18 11:00:00 17.4 13 Sudeste 41 Sudeste 0 -- -- 57
2020-03-18 10:00:00 18 21 Sudeste 44 Este 0 -- -- 54
2020-03-18 09:00:00 16.9 20 Sudeste 43 Sudeste 0 -- -- 60
2020-03-18 08:00:00 17.1 22 Sudeste 49 Este 0 -- -- 58
2020-03-18 07:00:00 17.1 22 Sudeste 50 Sudeste 0 -- -- 57
2020-03-18 06:00:00 17.2 23 Sudeste 49 Sudeste 0 -- -- 56
2020-03-18 05:00:00 16.9 20 Este 65 Este 0 -- -- 59
2020-03-18 04:00:00 16.4 22 Este 71 Sudeste 0 -- -- 63
2020-03-18 03:00:00 16.8 37 Sudeste 70 Sudeste 0 -- -- 61
2020-03-18 02:00:00 16.5 10 Sudeste 46 Sudeste 0 -- -- 65
2020-03-18 01:00:00 14.7 13 Nordeste 38 Sudeste 0 -- -- 67
2020-03-18 00:00:00 13.3 9 Norte 18 Norte 0 -- -- 71
2020-03-17 23:00:00 13.3 7 Noroeste 13 Norte 0 -- -- 71
2020-03-17 22:00:00 14.9 12 Sudeste 36 Sudeste 0 -- -- 63
2020-03-17 21:00:00 13.6 8 Nordeste 22 Nordeste 0 -- -- 66
2020-03-17 20:00:00 14.1 7 Este 26 Sudeste 0 -- -- 61
2020-03-17 19:00:00 14 5 Nordeste 33 Este 0 -- -- 57
2020-03-17 18:00:00 14.7 17 Sudeste 42 Este 0 -- -- 51
2020-03-17 17:00:00 15.4 18 Sudeste 36 Este 0 -- -- 47
2020-03-17 16:00:00 16 18 Sudeste 33 Este 0 -- -- 48
2020-03-17 15:00:00 14.6 12 Sudeste 48 Sudeste 0 -- -- 52
2020-03-17 14:00:00 15.4 32 Sudeste 54 Sudeste 0 -- -- 46
2020-03-17 13:00:00 14.7 30 Sudeste 58 Este 0 -- -- 44
2020-03-17 12:00:00 14.1 27 Sudeste 44 Sudeste 0 -- -- 54
2020-03-17 11:00:00 11.5 15 Sudeste 48 Sudeste 0 -- -- 64
2020-03-17 10:00:00 9.8 20 Sudeste 41 Sudeste 0 -- -- 69
2020-03-17 09:00:00 8.8 26 Sudeste 51 Sudeste 0 -- -- 73
2020-03-17 08:00:00 8.5 27 Sudeste 42 Sudeste 0.4 -- -- 79
2020-03-17 07:00:00 7.7 22 Sudeste 45 Sudeste 0 -- -- 81
2020-03-17 06:00:00 6.5 3 Este 9 Sudoeste 0 -- -- 94
2020-03-17 05:00:00 6.7 5 Este 15 Este 0.2 -- -- 91
2020-03-17 04:00:00 6.7 11 Este 17 Este 1.2 -- -- 92
2020-03-17 03:00:00 6.9 4 Norte 9 Este 1.2 -- -- 91
2020-03-17 02:00:00 7.4 3 Este 10 Norte 1.4 -- -- 85
2020-03-17 01:00:00 7.8 4 Norte 8 Noroeste 0.2 -- -- 79
2020-03-17 00:00:00 8.4 0 Calma 5 Norte 0 -- -- 69
2020-03-16 23:00:00 9.5 3 Noroeste 13 Noroeste 0 -- -- 63
2020-03-16 22:00:00 9.8 6 Norte 24 Norte 0 -- -- 59
2020-03-16 21:00:00 10.3 15 Norte 42 Noroeste 0 -- -- 57
2020-03-16 20:00:00 12.1 9 Noroeste 20 Norte 0 -- -- 47
2020-03-16 19:00:00 12.6 8 Noroeste 24 Noroeste 0 -- -- 46
2020-03-16 18:00:00 13.5 13 Noroeste 30 Noroeste 0 -- -- 43
2020-03-16 17:00:00 13.8 12 Noroeste 27 Oeste 0 -- -- 42
2020-03-16 16:00:00 14.1 15 Noroeste 37 Noroeste 0 -- -- 41
2020-03-16 15:00:00 15 16 Noroeste 36 Oeste 0 -- -- 39
2020-03-16 14:00:00 14.2 15 Noroeste 32 Noroeste 0 -- -- 45
2020-03-16 13:00:00 12.4 15 Noroeste 31 Noroeste 0 -- -- 48
2020-03-16 12:00:00 12.1 11 Noroeste 26 Oeste 0 -- -- 49
2020-03-16 11:00:00 10.4 13 Norte 26 Noroeste 0 -- -- 56
2020-03-16 10:00:00 9.6 11 Noroeste 26 Norte 0 -- -- 57
2020-03-16 09:00:00 8.2 7 Noroeste 27 Noroeste 0 -- -- 64
2020-03-16 08:00:00 8.1 8 Noroeste 17 Norte 0 -- -- 65
2020-03-16 07:00:00 8.9 6 Norte 17 Norte 0 -- -- 67
2020-03-16 06:00:00 9.9 9 Noroeste 20 Noroeste 0 -- -- 67
2020-03-16 05:00:00 10.7 7 Noroeste 20 Noroeste 0 -- -- 80
2020-03-16 04:00:00 11.8 4 Noroeste 15 Noroeste 0.2 -- -- 93
2020-03-16 03:00:00 12.2 5 Nordeste 17 Este 0 -- -- 88
2020-03-16 02:00:00 12.3 10 Sudeste 18 Este 0 -- -- 88
2020-03-16 01:00:00 11.1 5 Sudeste 12 Este 0 -- -- 90
2020-03-16 00:00:00 10.9 6 Este 10 Norte 0 -- -- 90
2020-03-15 23:00:00 11.8 5 Nordeste 13 Este 0 -- -- 87
2020-03-15 22:00:00 12.6 5 Este 10 Este 0 -- -- 85
2020-03-15 21:00:00 13.6 5 Sur 14 Sur 0 -- -- 81
2020-03-15 20:00:00 15 6 Sur 15 Este 0 -- -- 75
2020-03-15 19:00:00 17.1 10 Sur 21 Sudoeste 0 -- -- 68
2020-03-15 18:00:00 19.3 14 Sudoeste 22 Sudoeste 0 -- -- 62
2020-03-15 17:00:00 20.5 10 Sudoeste 25 Sudoeste 0 -- -- 58
2020-03-15 16:00:00 20.7 17 Sudoeste 31 Sur 0 -- -- 58
2020-03-15 15:00:00 21.3 18 Sur 29 Sudoeste 0 -- -- 54
2020-03-15 14:00:00 20.4 15 Sur 27 Sur 0 -- -- 58
2020-03-15 13:00:00 19.2 15 Sur 25 Sur 0 -- -- 62
2020-03-15 12:00:00 18.3 12 Sur 20 Sur 0 -- -- 62
2020-03-15 11:00:00 18 2 Oeste 11 Este 0 -- -- 64
2020-03-15 10:00:00 14.7 5 Sur 12 Este 0 -- -- 77
2020-03-15 09:00:00 11 4 Este 12 Este 0 -- -- 87
2020-03-15 08:00:00 10.6 10 Sudeste 18 Sudeste 0 -- -- 87
2020-03-15 07:00:00 10 10 Este 17 Sudeste 0 -- -- 91
2020-03-15 06:00:00 11 13 Sudeste 20 Sudeste 0 -- -- 86
2020-03-15 05:00:00 11.2 7 Sudeste 23 Sudeste 0 -- -- 85
2020-03-15 04:00:00 12.4 12 Sudeste 23 Este 0 -- -- 81
2020-03-15 03:00:00 11.8 11 Sudeste 21 Este 0 -- -- 87
2020-03-15 02:00:00 11 0 Calma 14 Sudeste 0 -- -- 92
2020-03-15 01:00:00 11.3 4 Sudeste 8 Sudeste 0 -- -- 90
2020-03-15 00:00:00 12.3 5 Este 12 Sudeste 0 -- -- 89
2020-03-14 23:00:00 13 6 Este 15 Este 0 -- -- 87
2020-03-14 22:00:00 13.7 5 Este 12 Este 0 -- -- 84
2020-03-14 21:00:00 15 3 Sudeste 14 Este 0 -- -- 79
2020-03-14 20:00:00 17.5 12 Este 18 Este 0 -- -- 71
2020-03-14 19:00:00 21.2 4 Oeste 12 Oeste 0 -- -- 59
2020-03-14 18:00:00 22.2 7 Noroeste 14 Oeste 0 -- -- 57
2020-03-14 17:00:00 22.6 6 Oeste 14 Oeste 0 -- -- 53
2020-03-14 16:00:00 22.1 7 Oeste 16 Oeste 0 -- -- 55
2020-03-14 15:00:00 21.2 7 Noroeste 16 Sudoeste 0 -- -- 59
2020-03-14 14:00:00 20.1 8 Oeste 18 Noroeste 0 -- -- 63
2020-03-14 13:00:00 19.5 7 Oeste 17 Oeste 0 -- -- 65
2020-03-14 12:00:00 18.4 5 Oeste 10 Noroeste 0 -- -- 66
2020-03-14 11:00:00 15.4 3 Noroeste 8 Oeste 0 -- -- 76
2020-03-14 10:00:00 12.2 3 Noroeste 6 Noroeste 0 -- -- 88
2020-03-14 09:00:00 9.4 0 Calma 10 Sudeste 0 -- -- 93
2020-03-14 08:00:00 8 0 Calma 9 Este 0 -- -- 95
2020-03-14 07:00:00 8.4 2 Nordeste 7 Este 0 -- -- 95
2020-03-14 06:00:00 8 4 Norte 9 Sudeste 0 -- -- 95
2020-03-14 05:00:00 7.8 5 Sudeste 10 Sudeste 0 -- -- 93
2020-03-14 04:00:00 8.3 3 Sudeste 6 Este 0 -- -- 91
2020-03-14 03:00:00 9.6 4 Este 6 Este 0 -- -- 93
2020-03-14 02:00:00 9.4 2 Nordeste 6 Este 0 -- -- 92
2020-03-14 01:00:00 10.2 2 Este 4 Este 0 -- -- 91
2020-03-14 00:00:00 10.6 3 Este 6 Este 0 -- -- 89
2020-03-13 23:00:00 12.4 4 Norte 6 Este 0 -- -- 88
2020-03-13 22:00:00 13.2 3 Noroeste 5 Noroeste 0 -- -- 85
2020-03-13 21:00:00 14.5 2 Noroeste 6 Noroeste 0 -- -- 80
2020-03-13 20:00:00 16.2 4 Norte 8 Oeste 0 -- -- 74
2020-03-13 19:00:00 19.4 4 Noroeste 13 Noroeste 0 -- -- 62
2020-03-13 18:00:00 21.8 5 Noroeste 11 Oeste 0 -- -- 52
2020-03-13 17:00:00 22.1 4 Noroeste 14 Sudoeste 0 -- -- 48
2020-03-13 16:00:00 21.5 8 Sudoeste 16 Oeste 0 -- -- 52
2020-03-13 15:00:00 20.2 6 Noroeste 14 Noroeste 0 -- -- 55
2020-03-13 14:00:00 19 5 Noroeste 11 Noroeste 0 -- -- 61
2020-03-13 13:00:00 16.2 4 Oeste 12 Noroeste 0 -- -- 73
2020-03-13 12:00:00 13.5 4 Noroeste 8 Noroeste 0 -- -- 83
2020-03-13 11:00:00 11.9 2 Noroeste 8 Sudoeste 0 -- -- 90
2020-03-13 10:00:00 11.4 2 Sudeste 8 Sudeste 0 -- -- 94
2020-03-13 09:00:00 11 0 Calma 8 Noroeste 0 -- -- 95
2020-03-13 08:00:00 10.6 6 Este 10 Este 0 -- -- 94
2020-03-13 07:00:00 10.5 5 Sudeste 8 Sudeste 0 -- -- 95
2020-03-13 06:00:00 11.1 0 Calma 4 Norte 0 -- -- 96
2020-03-13 05:00:00 10.9 2 Nordeste 12 Norte 0 -- -- 95
2020-03-13 04:00:00 10 4 Norte 8 Nordeste 0 -- -- 92
2020-03-13 03:00:00 11 6 Este 10 Este 0 -- -- 87
2020-03-13 02:00:00 11.6 3 Este 8 Sudeste 0 -- -- 89
2020-03-13 01:00:00 11.8 2 Sudeste 12 Sudeste 0 -- -- 90
2020-03-13 00:00:00 13.2 8 Este 9 Este 0 -- -- 88
2020-03-12 23:00:00 14 3 Norte 8 Norte 0 -- -- 84
2020-03-12 22:00:00 15.2 4 Norte 9 Este 0 -- -- 81
2020-03-12 21:00:00 16.2 5 Norte 19 Este 0 -- -- 76
2020-03-12 20:00:00 17.4 4 Noroeste 11 Noroeste 0 -- -- 72
2020-03-12 19:00:00 19.9 5 Noroeste 15 Oeste 0 -- -- 65
2020-03-12 18:00:00 24.6 8 Oeste 15 Oeste 0 -- -- 47
2020-03-12 17:00:00 26 8 Oeste 18 Oeste 0 -- -- 43
2020-03-12 16:00:00 25.8 7 Noroeste 13 Noroeste 0 -- -- 43
2020-03-12 15:00:00 25.3 6 Noroeste 14 Noroeste 0 -- -- 46
2020-03-12 14:00:00 23.6 7 Noroeste 15 Noroeste 0 -- -- 48
2020-03-12 13:00:00 21.9 8 Noroeste 17 Oeste 0 -- -- 51
2020-03-12 12:00:00 21.3 6 Noroeste 11 Noroeste 0 -- -- 49
2020-03-12 11:00:00 19.2 6 Noroeste 9 Noroeste 0 -- -- 55
2020-03-12 10:00:00 17.6 3 Noroeste 9 Nordeste 0 -- -- 59
2020-03-12 09:00:00 14.8 3 Norte 10 Este 0 -- -- 64
2020-03-12 08:00:00 14.4 4 Este 13 Norte 0 -- -- 59
2020-03-12 07:00:00 15.5 5 Este 14 Sudeste 0 -- -- 51
2020-03-12 06:00:00 13.8 12 Sudeste 18 Sudeste 0 -- -- 58
2020-03-12 05:00:00 13.7 3 Este 14 Este 0 -- -- 59
2020-03-12 04:00:00 14 4 Este 13 Este 0 -- -- 59
2020-03-12 03:00:00 13.6 12 Este 15 Este 0 -- -- 60
2020-03-12 02:00:00 13.3 4 Sudeste 15 Sudeste 0 -- -- 61
2020-03-12 01:00:00 14.2 7 Este 14 Este 0 -- -- 59
2020-03-12 00:00:00 13.6 4 Este 10 Este 0 -- -- 63
2020-03-11 23:00:00 14.6 6 Sudeste 11 Sudeste 0 -- -- 60
2020-03-11 22:00:00 15.8 2 Nordeste 11 Sudeste 0 -- -- 55
2020-03-11 21:00:00 17.4 6 Sur 14 Sudeste 0 -- -- 51
2020-03-11 20:00:00 21.1 5 Sur 12 Sudoeste 0 -- -- 45
2020-03-11 19:00:00 26 3 Oeste 6 Oeste 0 -- -- 36
2020-03-11 18:00:00 27.9 3 Noroeste 10 Noroeste 0 -- -- 32
2020-03-11 17:00:00 28.6 4 Sudoeste 15 Sur 0 -- -- 28
2020-03-11 16:00:00 27.4 8 Sudoeste 16 Sudeste 0 -- -- 33
2020-03-11 15:00:00 28.7 4 Nordeste 10 Norte 0 -- -- 33
2020-03-11 14:00:00 27.7 4 Noroeste 9 Noroeste 0 -- -- 33
2020-03-11 13:00:00 25.4 4 Norte 12 Norte 0 -- -- 41
2020-03-11 12:00:00 23.3 3 Noroeste 7 Oeste 0 -- -- 49
2020-03-11 11:00:00 20.1 3 Oeste 6 Sudoeste 0 -- -- 53
2020-03-11 10:00:00 16.2 3 Sur 10 Sudeste 0 -- -- 58
2020-03-11 09:00:00 11.9 2 Sur 5 Sudeste 0 -- -- 74
2020-03-11 08:00:00 8.9 0 Calma 7 Sudeste 0 -- -- 82
2020-03-11 07:00:00 9.4 5 Este 12 Sudeste 0 -- -- 79
2020-03-11 06:00:00 10.3 4 Nordeste 12 Este 0 -- -- 75
2020-03-11 05:00:00 10.4 4 Sudeste 11 Sudeste 0 -- -- 74
2020-03-11 04:00:00 11.7 0 Calma 13 Este 0 -- -- 68
2020-03-11 03:00:00 11.6 3 Sudeste 9 Nordeste 0 -- -- 70
2020-03-11 02:00:00 12.9 8 Este 11 Este 0 -- -- 65
2020-03-11 01:00:00 12.8 2 Sudeste 18 Sudeste 0 -- -- 66
2020-03-11 00:00:00 13.3 5 Sur 17 Sudeste 0 -- -- 65
2020-03-10 23:00:00 14.2 6 Este 21 Este 0 -- -- 61
2020-03-10 22:00:00 16.4 17 Este 29 Este 0 -- -- 52
2020-03-10 21:00:00 16.9 15 Este 26 Este 0 -- -- 50
2020-03-10 20:00:00 17.6 15 Este 28 Este 0 -- -- 47
2020-03-10 19:00:00 19.9 10 Este 26 Sudoeste 0 -- -- 45
2020-03-10 18:00:00 21.6 17 Sur 27 Sur 0 -- -- 44
2020-03-10 17:00:00 23.5 15 Sudoeste 23 Sur 0 -- -- 43
2020-03-10 16:00:00 24.5 14 Sudoeste 24 Sudoeste 0 -- -- 37
2020-03-10 15:00:00 26.4 9 Oeste 19 Sudoeste 0 -- -- 33
2020-03-10 14:00:00 24.9 8 Norte 12 Norte 0 -- -- 36
2020-03-10 13:00:00 24 6 Noroeste 13 Oeste 0 -- -- 36
2020-03-10 12:00:00 22.5 5 Noroeste 9 Norte 0 -- -- 39
2020-03-10 11:00:00 20.1 4 Norte 9 Norte 0 -- -- 41
2020-03-10 10:00:00 18.3 0 Calma 8 Sur 0 -- -- 47
2020-03-10 09:00:00 14.3 5 Sur 10 Sudoeste 0 -- -- 58
2020-03-10 08:00:00 14.9 6 Oeste 18 Nordeste 0 -- -- 49
2020-03-10 07:00:00 12.5 4 Sur 16 Norte 0 -- -- 55
2020-03-10 06:00:00 11 4 Sur 18 Norte 0 -- -- 61
2020-03-10 05:00:00 9.2 3 Nordeste 12 Nordeste 0 -- -- 72
2020-03-10 04:00:00 8.6 4 Norte 16 Este 0 -- -- 79
2020-03-10 03:00:00 9.3 7 Este 14 Este 0 -- -- 75
2020-03-10 02:00:00 9.9 4 Sudeste 12 Este 0 -- -- 73
2020-03-10 01:00:00 11.5 9 Sudeste 13 Este 0 -- -- 65
2020-03-10 00:00:00 12.6 3 Sudeste 10 Sur 0 -- -- 62
2020-03-09 23:00:00 12.5 0 Calma 4 Noroeste 0 -- -- 62
2020-03-09 22:00:00 13.3 0 Calma 11 Nordeste 0 -- -- 62
2020-03-09 21:00:00 14.2 2 Sur 9 Nordeste 0 -- -- 55
2020-03-09 20:00:00 15.9 5 Norte 11 Noroeste 0 -- -- 50
2020-03-09 19:00:00 19.3 6 Noroeste 29 Noroeste 0 -- -- 40
2020-03-09 18:00:00 21.1 14 Noroeste 32 Noroeste 0 -- -- 34
2020-03-09 17:00:00 21.7 16 Norte 36 Noroeste 0 -- -- 35
2020-03-09 16:00:00 22.7 14 Noroeste 28 Noroeste 0 -- -- 36
2020-03-09 15:00:00 22.6 15 Noroeste 30 Noroeste 0 -- -- 33
2020-03-09 14:00:00 22.3 16 Noroeste 30 Noroeste 0 -- -- 33
2020-03-09 13:00:00 21.7 16 Noroeste 25 Norte 0 -- -- 28
2020-03-09 12:00:00 20.2 5 Oeste 12 Oeste 0 -- -- 39
2020-03-09 11:00:00 16.3 5 Sur 9 Sudoeste 0 -- -- 57
2020-03-09 10:00:00 12.8 4 Sudeste 8 Sudeste 0 -- -- 62
2020-03-09 09:00:00 7.2 3 Norte 9 Noroeste 0 -- -- 79
2020-03-09 08:00:00 6.8 9 Este 13 Este 0 -- -- 77
2020-03-09 07:00:00 6.3 0 Calma 4 Este 0 -- -- 81
2020-03-09 06:00:00 6.2 0 Calma 10 Sudeste 0 -- -- 80
2020-03-09 05:00:00 7.3 3 Sudeste 8 Este 0 -- -- 75
2020-03-09 04:00:00 7.6 0 Calma 5 Este 0 -- -- 75
2020-03-09 03:00:00 8.6 4 Este 12 Este 0 -- -- 69
2020-03-09 02:00:00 9.7 7 Este 9 Este 0 -- -- 65
2020-03-09 01:00:00 10.2 0 Calma 8 Este 0 -- -- 64
2020-03-09 00:00:00 11.4 0 Calma 8 Este 0 -- -- 60